Time;durP1;ratioP1;P1;durP2;ratioP2;P2;SDS_P1;SDS_P2;PMS_P1;PMS_P2;Temp;Humidity;BMP_temperature;BMP_pressure;BME280_temperature;BME280_humidity;BME280_pressure;Samples;Min_cycle;Max_cycle;Signal;HPM_P1;HPM_P2
2021/07/30 00:00:37;;;;;;;17.13;7.70;;;;;;;12.95;100.00;100955.09;3566979;40;20041;-61
2021/07/30 00:03:03;;;;;;;16.95;8.15;;;;;;;12.94;100.00;100949.84;3566310;40;20034;-61
2021/07/30 00:05:29;;;;;;;16.90;7.75;;;;;;;12.90;100.00;100946.63;3567395;40;20289;-60
2021/07/30 00:07:56;;;;;;;16.98;8.80;;;;;;;12.89;100.00;100939.50;3566957;40;20028;-61
2021/07/30 00:10:23;;;;;;;18.75;8.43;;;;;;;12.84;100.00;100941.81;3563942;40;20077;-60
2021/07/30 00:12:55;;;;;;;14.23;7.45;;;;;;;12.85;100.00;100943.50;3660846;22;20036;-60
2021/07/30 00:15:22;;;;;;;15.70;8.02;;;;;;;12.90;100.00;100943.06;3603412;39;20040;-61
2021/07/30 00:17:48;;;;;;;21.45;8.15;;;;;;;12.89;100.00;100939.50;3608075;39;20038;-61
2021/07/30 00:20:15;;;;;;;18.75;8.68;;;;;;;12.86;100.00;100942.50;3607367;39;20039;-61
2021/07/30 00:22:41;;;;;;;17.83;9.25;;;;;;;12.84;100.00;100943.63;3609073;39;20048;-61
2021/07/30 00:25:09;;;;;;;15.82;9.15;;;;;;;12.81;100.00;100942.13;3608181;39;20382;-60
2021/07/30 00:27:35;;;;;;;14.98;8.88;;;;;;;12.77;100.00;100935.31;3608325;39;20119;-60
2021/07/30 00:30:03;;;;;;;16.63;8.65;;;;;;;12.79;100.00;100934.16;3608278;39;20039;-60
2021/07/30 00:32:30;;;;;;;16.67;9.15;;;;;;;12.75;100.00;100931.88;3609039;39;20372;-60
2021/07/30 00:34:56;;;;;;;16.58;9.30;;;;;;;12.71;100.00;100939.44;3608982;39;20361;-60
2021/07/30 00:37:22;;;;;;;18.85;10.05;;;;;;;12.72;100.00;100927.66;3608972;39;20034;-60
2021/07/30 00:39:49;;;;;;;23.80;9.15;;;;;;;12.73;100.00;100929.31;3608583;39;20116;-60
2021/07/30 00:42:15;;;;;;;18.02;9.50;;;;;;;12.78;100.00;100931.59;3607673;39;20031;-60
2021/07/30 00:44:42;;;;;;;22.23;9.57;;;;;;;12.73;100.00;100929.31;3608348;39;20366;-60
2021/07/30 00:47:10;;;;;;;20.80;9.43;;;;;;;12.69;100.00;100932.47;3609077;39;20032;-60
2021/07/30 00:49:37;;;;;;;15.48;9.68;;;;;;;12.69;100.00;100937.88;3608949;39;20034;-61
2021/07/30 00:52:04;;;;;;;19.42;10.27;;;;;;;12.74;100.00;100932.91;3608514;39;20051;-60
2021/07/30 00:54:31;;;;;;;17.73;9.52;;;;;;;12.67;100.00;100929.94;3607978;39;20390;-60
2021/07/30 00:56:58;;;;;;;17.70;9.43;;;;;;;12.70;100.00;100931.50;3608604;39;20056;-61
2021/07/30 00:59:25;;;;;;;15.90;8.70;;;;;;;12.72;100.00;100924.94;3608632;39;20065;-61
2021/07/30 01:01:52;;;;;;;18.75;10.52;;;;;;;12.69;100.00;100932.47;3608273;39;20402;-61
2021/07/30 01:04:20;;;;;;;18.85;10.38;;;;;;;12.69;100.00;100929.78;3607966;39;20050;-60
2021/07/30 01:06:46;;;;;;;15.48;9.27;;;;;;;12.72;100.00;100932.19;3609147;39;20089;-61
2021/07/30 01:09:13;;;;;;;23.17;10.80;;;;;;;12.67;100.00;100942.59;3608502;39;20084;-60
2021/07/30 01:11:39;;;;;;;18.73;9.60;;;;;;;12.60;100.00;100929.69;3609073;39;20096;-61
2021/07/30 01:14:07;;;;;;;19.38;8.75;;;;;;;12.62;100.00;100933.06;3606978;39;20059;-61
2021/07/30 01:16:34;;;;;;;18.67;10.43;;;;;;;12.64;100.00;100929.38;3602382;39;20294;-60
2021/07/30 01:19:00;;;;;;;18.58;10.07;;;;;;;12.57;100.00;100927.28;3608832;39;20136;-61
2021/07/30 01:21:31;;;;;;;23.25;9.85;;;;;;;12.55;100.00;100931.13;3607596;39;20397;-60
2021/07/30 01:26:29;;;;;;;19.67;9.90;;;;;;;12.69;100.00;100927.06;3643032;22;20051;-61
2021/07/30 01:28:55;;;;;;;21.00;10.02;;;;;;;12.65;100.00;100929.25;3608303;39;20435;-61
2021/07/30 01:31:21;;;;;;;19.20;10.38;;;;;;;12.62;100.00;100926.84;3608034;39;20031;-61
2021/07/30 01:33:48;;;;;;;17.90;10.77;;;;;;;12.56;100.00;100928.28;3607171;39;20044;-61
2021/07/30 01:36:14;;;;;;;20.73;10.88;;;;;;;12.54;100.00;100930.25;3608251;39;20386;-60
2021/07/30 01:38:41;;;;;;;23.35;10.15;;;;;;;12.53;100.00;100925.00;3608308;39;20036;-60
2021/07/30 01:41:10;;;;;;;19.95;10.40;;;;;;;12.50;100.00;100928.88;3608058;39;20043;-60
2021/07/30 01:43:38;;;;;;;;;;;;;;;12.49;100.00;100927.16;3608295;39;20110;-61
2021/07/30 01:46:05;;;;;;;19.60;10.73;;;;;;;12.53;100.00;100928.56;3607035;39;19940;-60
2021/07/30 01:48:31;;;;;;;19.48;10.77;;;;;;;12.47;100.00;100922.88;3607258;39;20026;-60
2021/07/30 01:50:58;;;;;;;19.65;10.82;;;;;;;12.42;100.00;100926.03;3608266;39;20039;-60
2021/07/30 01:53:24;;;;;;;20.02;10.43;;;;;;;12.51;100.00;100919.75;3608323;39;20044;-61
2021/07/30 01:55:51;;;;;;;15.70;10.60;;;;;;;12.56;100.00;100928.28;3608540;39;20054;-60
2021/07/30 01:58:17;;;;;;;17.02;9.95;;;;;;;12.50;100.00;100923.47;3607281;39;20033;-60
2021/07/30 02:00:45;;;;;;;17.50;9.77;;;;;;;12.53;100.00;100922.28;3607427;39;20034;-60
2021/07/30 02:03:11;;;;;;;16.67;9.80;;;;;;;12.52;100.00;100921.47;3608765;39;20386;-60
2021/07/30 02:05:38;;;;;;;19.55;10.55;;;;;;;12.51;100.00;100908.94;3607419;39;20046;-61
2021/07/30 02:08:05;;;;;;;17.73;10.23;;;;;;;12.51;100.00;100911.66;3608133;39;20400;-60
2021/07/30 02:10:32;;;;;;;20.75;10.65;;;;;;;12.53;100.00;100912.38;3608157;39;20402;-60
2021/07/30 02:15:52;;;;;;;17.85;10.00;;;;;;;12.44;100.00;100915.97;3574810;39;20046;-61
2021/07/30 02:18:18;;;;;;;18.58;10.52;;;;;;;12.42;100.00;100910.69;3607331;39;20034;-60
2021/07/30 02:20:46;;;;;;;17.25;10.43;;;;;;;12.40;100.00;100912.69;3605920;39;20373;-61
2021/07/30 02:23:12;;;;;;;16.92;9.70;;;;;;;12.42;100.00;100915.25;3607945;39;20301;-60
2021/07/30 02:25:39;;;;;;;20.33;10.00;;;;;;;12.50;100.00;100914.50;3608389;39;20390;-60
2021/07/30 02:28:05;;;;;;;21.88;9.40;;;;;;;12.47;100.00;100912.97;3607703;39;20032;-60
2021/07/30 02:30:32;;;;;;;22.10;9.02;;;;;;;12.44;100.00;100907.88;3607520;39;20300;-61
2021/07/30 02:32:59;;;;;;;16.40;10.35;;;;;;;12.38;100.00;100912.00;3608047;39;20364;-61
2021/07/30 02:35:26;;;;;;;18.75;10.00;;;;;;;12.39;100.00;100905.56;3607635;39;20055;-60
2021/07/30 02:37:52;;;;;;;16.17;9.60;;;;;;;12.34;100.00;100901.66;3600989;39;20044;-60
2021/07/30 02:40:19;;;;;;;18.20;9.82;;;;;;;12.37;100.00;100912.16;3607019;39;20047;-60
2021/07/30 02:42:45;;;;;;;15.70;9.68;;;;;;;12.43;100.00;100906.16;3608587;39;20045;-60
2021/07/30 02:45:12;;;;;;;16.73;9.43;;;;;;;12.41;100.00;100898.19;3666034;22;20056;-60
2021/07/30 02:47:39;;;;;;;18.15;9.98;;;;;;;12.42;100.00;100901.75;3597668;39;20064;-61
2021/07/30 02:50:08;;;;;;;18.40;9.77;;;;;;;12.43;100.00;100901.59;3597954;39;20084;-60
2021/07/30 02:52:34;;;;;;;17.50;9.85;;;;;;;12.52;100.00;100907.13;3603393;39;20038;-60
2021/07/30 02:55:01;;;;;;;16.30;9.45;;;;;;;12.52;100.00;100910.66;3606264;39;20038;-61
2021/07/30 02:57:27;;;;;;;23.83;10.32;;;;;;;12.51;100.00;100903.53;3605966;39;20028;-60
2021/07/30 02:59:54;;;;;;;14.27;9.00;;;;;;;12.50;100.00;100895.59;3603594;39;20315;-60
2021/07/30 03:02:20;;;;;;;18.27;9.90;;;;;;;12.52;100.00;100899.84;3597593;39;20128;-61
2021/07/30 03:04:47;;;;;;;15.57;9.35;;;;;;;12.47;100.00;100902.16;3601132;39;20275;-61
2021/07/30 03:07:14;;;;;;;16.02;9.70;;;;;;;12.47;100.00;100885.97;3601029;39;20038;-61
2021/07/30 03:09:41;;;;;;;17.98;9.70;;;;;;;12.40;100.00;100885.69;3603027;39;20040;-61
2021/07/30 03:12:08;;;;;;;19.38;9.80;;;;;;;12.37;100.00;100891.41;3597421;39;20048;-61
2021/07/30 03:14:34;;;;;;;16.85;9.60;;;;;;;12.38;100.00;100886.84;3604269;39;20034;-61
2021/07/30 03:17:01;;;;;;;16.50;9.70;;;;;;;12.34;100.00;100889.00;3607334;39;20040;-61
2021/07/30 03:19:27;;;;;;;17.48;8.98;;;;;;;12.30;100.00;100889.44;3599471;39;20046;-60
2021/07/30 03:21:54;;;;;;;19.30;10.70;;;;;;;12.27;100.00;100886.00;3603459;39;20037;-60
2021/07/30 03:24:21;;;;;;;17.13;9.23;;;;;;;12.29;100.00;100885.88;3602867;39;20034;-60
2021/07/30 03:26:48;;;;;;;19.38;8.93;;;;;;;12.27;100.00;100885.16;3604423;39;20047;-61
2021/07/30 03:29:14;;;;;;;17.17;8.98;;;;;;;12.22;100.00;100882.03;3598331;39;20044;-60
2021/07/30 03:31:41;;;;;;;15.02;8.68;;;;;;;12.19;100.00;100882.34;3603831;39;20040;-60
2021/07/30 03:34:08;;;;;;;16.55;9.02;;;;;;;12.18;100.00;100875.25;3601696;39;20053;-60
2021/07/30 03:36:34;;;;;;;16.73;10.10;;;;;;;12.18;100.00;100870.72;3597648;39;20112;-61
2021/07/30 03:39:00;;;;;;;13.00;8.68;;;;;;;12.15;100.00;100875.56;3597617;39;20040;-60
2021/07/30 03:41:28;;;;;;;17.85;9.70;;;;;;;12.16;100.00;100880.81;3597345;39;20029;-60
2021/07/30 03:43:55;;;;;;;18.63;8.95;;;;;;;12.15;100.00;100875.56;3599758;39;20047;-60
2021/07/30 03:46:21;;;;;;;17.40;10.02;;;;;;;12.12;100.00;100876.69;3608420;39;20939;-61
2021/07/30 03:48:47;;;;;;;18.35;9.48;;;;;;;12.05;100.00;100878.28;3601652;39;20036;-61
2021/07/30 03:51:14;;;;;;;19.58;10.05;;;;;;;12.03;100.00;100872.19;3603492;39;20058;-60
2021/07/30 03:53:40;;;;;;;17.10;9.85;;;;;;;12.07;100.00;100876.25;3598782;39;20028;-60
2021/07/30 03:56:13;;;;;;;18.98;9.98;;;;;;;12.02;100.00;100882.09;3599452;39;20044;-60
2021/07/30 03:58:41;;;;;;;19.45;9.65;;;;;;;12.09;100.00;100875.13;3606163;39;20051;-61
2021/07/30 04:01:08;;;;;;;17.70;9.90;;;;;;;12.10;100.00;100873.28;3603216;39;20036;-61
2021/07/30 04:03:34;;;;;;;17.20;9.27;;;;;;;12.18;100.00;100880.66;3599167;39;20036;-61
2021/07/30 04:06:01;;;;;;;16.70;10.43;;;;;;;12.16;100.00;100878.13;3598989;39;20036;-61
2021/07/30 04:08:28;;;;;;;18.92;10.30;;;;;;;12.17;100.00;100873.56;3598849;39;20128;-61
2021/07/30 04:10:54;;;;;;;20.00;9.55;;;;;;;12.20;100.00;100863.31;3601513;39;20301;-62
2021/07/30 04:13:21;;;;;;;21.42;10.52;;;;;;;12.24;100.00;100866.56;3604960;39;20028;-60
2021/07/30 04:15:49;;;;;;;15.85;9.20;;;;;;;12.31;100.00;100864.13;3605510;39;20039;-61
2021/07/30 04:18:15;;;;;;;14.32;8.70;;;;;;;12.40;100.00;100866.81;3598503;39;20028;-62
2021/07/30 04:20:41;;;;;;;19.77;9.68;;;;;;;12.48;100.00;100860.66;3600694;39;20034;-61
2021/07/30 04:23:08;;;;;;;18.25;9.55;;;;;;;12.45;100.00;100858.25;3607833;39;20030;-61
2021/07/30 04:25:34;;;;;;;20.02;9.40;;;;;;;12.47;100.00;100858.97;3603643;39;20044;-61
2021/07/30 04:28:01;;;;;;;15.23;9.68;;;;;;;12.47;100.00;100853.56;3599001;39;20038;-61
2021/07/30 04:30:28;;;;;;;15.85;9.40;;;;;;;12.53;100.00;100857.50;3603864;39;20061;-61
2021/07/30 04:32:56;;;;;;;17.02;9.68;;;;;;;12.59;100.00;100856.94;3602383;39;20038;-61
2021/07/30 04:35:22;;;;;;;20.33;9.63;;;;;;;12.70;100.00;100861.28;3603252;39;20364;-61
2021/07/30 04:37:49;;;;;;;19.30;8.90;;;;;;;12.68;100.00;100850.63;3607626;39;20031;-61
2021/07/30 04:40:15;;;;;;;17.98;9.93;;;;;;;12.70;100.00;100853.19;3598445;39;20050;-61
2021/07/30 04:42:42;;;;;;;20.23;9.93;;;;;;;12.73;100.00;100858.28;3604618;39;20048;-61
2021/07/30 04:45:09;;;;;;;15.63;9.15;;;;;;;12.85;100.00;100859.75;3599828;39;20052;-61
2021/07/30 04:47:36;;;;;;;15.65;9.60;;;;;;;12.86;100.00;100858.75;3606513;39;20038;-61
2021/07/30 04:50:04;;;;;;;16.45;9.10;;;;;;;12.86;100.00;100858.75;3600333;39;20034;-61
2021/07/30 04:52:30;;;;;;;15.68;9.13;;;;;;;12.88;100.00;100861.31;3604272;39;20056;-61
2021/07/30 04:54:56;;;;;;;18.20;9.30;;;;;;;12.88;100.00;100859.47;3598117;39;20409;-61
2021/07/30 04:57:23;;;;;;;20.90;9.48;;;;;;;12.89;100.00;100853.06;3602202;39;20037;-61
2021/07/30 04:59:49;;;;;;;16.90;8.75;;;;;;;12.90;100.00;100860.16;3603923;39;20048;-61
2021/07/30 05:02:16;;;;;;;18.70;9.43;;;;;;;12.97;100.00;100855.88;3607895;39;20038;-61
2021/07/30 05:04:42;;;;;;;19.33;9.30;;;;;;;13.00;100.00;100860.13;3601472;39;20044;-61
2021/07/30 05:07:11;;;;;;;16.38;9.55;;;;;;;13.12;100.00;100855.34;3608678;39;20296;-61
2021/07/30 05:09:38;;;;;;;16.30;9.52;;;;;;;13.11;100.00;100853.63;3598875;39;20035;-62
2021/07/30 05:12:05;;;;;;;19.02;9.55;;;;;;;13.17;100.00;100846.78;3602656;39;20032;-62
2021/07/30 05:14:31;;;;;;;18.65;8.75;;;;;;;13.24;100.00;100851.41;3606831;39;20036;-61
2021/07/30 05:16:58;;;;;;;14.07;8.68;;;;;;;13.28;100.00;100846.53;3599222;39;20040;-61
2021/07/30 05:19:24;;;;;;;17.73;9.07;;;;;;;13.31;100.00;100852.50;3600476;39;20058;-61
2021/07/30 05:21:50;;;;;;;18.05;9.40;;;;;;;13.31;100.00;100848.94;3604539;39;20294;-61
2021/07/30 05:24:18;;;;;;;14.73;9.48;;;;;;;13.32;100.00;100837.13;3604567;39;20047;-61
2021/07/30 05:26:45;;;;;;;18.50;9.48;;;;;;;13.37;100.00;100834.84;3608133;39;20038;-61
2021/07/30 05:29:11;;;;;;;17.88;9.07;;;;;;;13.44;100.00;100837.75;3608329;39;20047;-61
2021/07/30 05:31:37;;;;;;;17.08;9.00;;;;;;;13.47;100.00;100840.16;3604537;39;20048;-61
2021/07/30 05:34:04;;;;;;;14.40;8.82;;;;;;;13.51;100.00;100838.00;3603574;39;20121;-62
2021/07/30 05:36:30;;;;;;;16.08;9.45;;;;;;;13.50;100.00;100834.47;3598566;39;20040;-61
2021/07/30 05:38:57;;;;;;;18.60;9.65;;;;;;;13.66;100.00;100834.59;3598134;39;20035;-62
2021/07/30 05:41:25;;;;;;;15.93;8.77;;;;;;;13.54;100.00;100837.69;3598166;39;20028;-61
2021/07/30 05:43:51;;;;;;;17.38;9.02;;;;;;;13.58;100.00;100845.31;3598226;39;20038;-62
2021/07/30 05:46:19;;;;;;;17.90;9.10;;;;;;;13.71;100.00;100841.38;3604949;39;20063;-61
2021/07/30 05:48:46;;;;;;;17.77;9.50;;;;;;;13.82;100.00;100841.09;3598409;39;20055;-62
2021/07/30 05:51:13;;;;;;;16.02;9.57;;;;;;;13.77;100.00;100833.47;3599822;39;20423;-61
2021/07/30 05:53:40;;;;;;;13.52;8.77;;;;;;;13.97;100.00;100831.44;3605248;39;20051;-61
2021/07/30 05:56:07;;;;;;;16.35;8.90;;;;;;;14.16;100.00;100834.91;3603496;39;20028;-61
2021/07/30 05:58:35;;;;;;;19.83;9.77;;;;;;;14.11;100.00;100834.56;3603437;39;20036;-61
2021/07/30 06:01:01;;;;;;;17.08;9.13;;;;;;;14.19;100.00;100829.16;3603413;39;20294;-62
2021/07/30 06:03:27;;;;;;;14.45;8.73;;;;;;;14.20;100.00;100830.88;3602458;39;20056;-61
2021/07/30 06:05:54;;;;;;;17.98;8.95;;;;;;;14.26;100.00;100832.94;3601582;39;20034;-61
2021/07/30 06:08:20;;;;;;;15.20;8.40;;;;;;;14.25;100.00;100836.66;3606433;39;20044;-61
2021/07/30 06:10:47;;;;;;;18.40;8.57;;;;;;;14.32;100.00;100832.28;3602116;39;20052;-62
2021/07/30 06:13:13;;;;;;;14.30;9.15;;;;;;;14.32;100.00;100832.28;3601370;39;20038;-61
2021/07/30 06:15:41;;;;;;;13.98;8.63;;;;;;;14.38;100.00;100825.38;3600615;39;20036;-61
2021/07/30 06:18:07;;;;;;;14.68;8.25;;;;;;;14.62;100.00;100819.25;3600813;39;20051;-61
2021/07/30 06:20:34;;;;;;;16.80;8.60;;;;;;;14.70;100.00;100827.41;3601599;39;20023;-62
2021/07/30 06:23:00;;;;;;;15.38;8.23;;;;;;;14.85;100.00;100826.78;3598762;39;20043;-62
2021/07/30 06:25:27;;;;;;;16.88;8.10;;;;;;;14.95;100.00;100818.50;3601864;39;20032;-61
2021/07/30 06:27:54;;;;;;;13.35;8.60;;;;;;;15.25;100.00;100817.03;3598610;39;20033;-61
2021/07/30 06:30:20;;;;;;;12.38;7.70;;;;;;;15.30;100.00;100809.25;3597340;39;20058;-61
2021/07/30 06:32:48;;;;;;;19.63;7.68;;;;;;;15.51;100.00;100813.31;3601537;39;20294;-61
2021/07/30 06:35:15;;;;;;;16.38;6.88;;;;;;;15.73;100.00;100804.47;3602360;39;20408;-61
2021/07/30 06:37:43;;;;;;;14.73;7.57;;;;;;;15.95;100.00;100810.25;3599307;39;20072;-61
2021/07/30 06:40:10;;;;;;;12.52;6.65;;;;;;;15.86;100.00;100803.16;3601029;39;20064;-62
2021/07/30 06:42:37;;;;;;;12.40;7.18;;;;;;;15.75;100.00;100807.88;3603892;39;20028;-61
2021/07/30 06:45:04;;;;;;;15.52;7.22;;;;;;;15.69;100.00;100805.84;3601684;39;20027;-61
2021/07/30 06:47:33;;;;;;;15.40;7.40;;;;;;;15.78;100.00;100812.13;3601157;39;20064;-61
2021/07/30 06:50:01;;;;;;;12.00;7.20;;;;;;;16.06;100.00;100806.31;3600634;39;20036;-61
2021/07/30 06:52:27;;;;;;;13.38;6.78;;;;;;;16.07;100.00;100806.13;3605196;39;20085;-61
2021/07/30 06:54:54;;;;;;;16.80;7.63;;;;;;;16.36;100.00;100806.59;3599752;39;20040;-61
2021/07/30 06:57:20;;;;;;;18.02;7.47;;;;;;;16.30;100.00;100786.41;3602822;39;20031;-62
2021/07/30 06:59:48;;;;;;;15.43;7.18;;;;;;;16.22;100.00;100791.84;3605738;39;20285;-61
2021/07/30 07:02:14;;;;;;;15.70;7.07;;;;;;;16.24;100.00;100792.53;3605156;39;20030;-62
2021/07/30 07:04:41;;;;;;;13.13;6.45;;;;;;;16.38;100.00;100799.94;3605705;39;20047;-62
2021/07/30 07:07:08;;;;;;;16.80;7.55;;;;;;;16.58;100.00;100789.50;3604848;39;20039;-62
2021/07/30 07:09:35;;;;;;;13.45;7.15;;;;;;;16.58;100.00;100788.66;3653648;22;20074;-62
2021/07/30 07:12:02;;;;;;;14.80;7.53;;;;;;;16.53;100.00;100781.03;3596178;39;20028;-61
2021/07/30 07:14:29;;;;;;;10.27;6.25;;;;;;;16.57;100.00;100784.25;3596030;39;20036;-61
2021/07/30 07:16:56;;;;;;;17.35;7.35;;;;;;;16.87;100.00;100768.09;3598114;40;20081;-62
2021/07/30 07:19:22;;;;;;;13.02;6.28;;;;;;;16.90;100.00;100776.78;3598016;39;20044;-62
2021/07/30 07:21:50;;;;;;;15.27;7.30;;;;;;;17.01;100.00;100775.53;3599293;39;20032;-61
2021/07/30 07:24:18;;;;;;;16.55;7.00;;;;;;;17.07;100.00;100782.94;3598530;39;20036;-61
2021/07/30 07:26:45;;;;;;;10.57;6.20;;;;;;;16.89;100.00;100793.28;3597517;40;20360;-62
2021/07/30 07:29:11;;;;;;;12.40;5.88;;;;;;;16.93;100.00;100790.03;3594529;39;20042;-61
2021/07/30 07:31:38;;;;;;;12.63;6.60;;;;;;;17.14;100.00;100786.63;3598650;39;20034;-61
2021/07/30 07:34:04;;;;;;;13.50;6.53;;;;;;;17.09;100.00;100780.91;3598332;39;20100;-61
2021/07/30 07:36:31;;;;;;;12.23;5.90;;;;;;;17.13;100.00;100782.22;3598239;39;20071;-62
2021/07/30 07:38:57;;;;;;;14.35;6.15;;;;;;;16.98;100.00;100778.59;3597795;40;20035;-61
2021/07/30 07:41:26;;;;;;;13.70;6.20;;;;;;;17.33;100.00;100774.44;3597574;39;20266;-62
2021/07/30 07:43:52;;;;;;;12.45;5.78;;;;;;;17.71;100.00;100764.56;3594506;39;20044;-62
2021/07/30 07:46:19;;;;;;;11.65;5.60;;;;;;;17.89;100.00;100766.91;3597094;39;20036;-62
2021/07/30 07:48:45;;;;;;;14.18;5.72;;;;;;;17.93;100.00;100760.09;3598405;39;20036;-61
2021/07/30 07:51:11;;;;;;;13.10;6.22;;;;;;;17.88;100.00;100767.97;3598638;39;20052;-61
2021/07/30 07:53:38;;;;;;;10.77;5.03;;;;;;;17.93;100.00;100765.56;3666719;22;20248;-61
2021/07/30 07:56:06;;;;;;;9.50;4.85;;;;;;;18.07;100.00;100763.88;3604557;39;20116;-62
2021/07/30 07:58:34;;;;;;;11.18;5.20;;;;;;;18.26;100.00;100771.47;3603046;39;20036;-61
2021/07/30 08:01:01;;;;;;;10.40;5.13;;;;;;;18.38;100.00;100760.94;3607655;39;20039;-62
2021/07/30 08:03:28;;;;;;;9.10;4.90;;;;;;;18.53;100.00;100759.03;3608433;39;20068;-61
2021/07/30 08:05:54;;;;;;;14.40;4.90;;;;;;;18.43;100.00;100766.66;3607893;39;20415;-61
2021/07/30 08:08:20;;;;;;;10.02;4.57;;;;;;;18.52;100.00;100760.09;3606445;39;20031;-62
2021/07/30 08:10:47;;;;;;;11.23;4.70;;;;;;;19.20;100.00;100754.34;3600223;39;20043;-62
2021/07/30 08:13:15;;;;;;;9.02;4.55;;;;;;;19.10;100.00;100756.53;3652188;22;20160;-62
2021/07/30 08:15:43;;;;;;;10.50;5.13;;;;;;;18.82;100.00;100759.16;3608100;39;20039;-63
2021/07/30 08:18:09;;;;;;;10.70;5.07;;;;;;;18.86;100.00;100744.97;3605906;39;20042;-62
2021/07/30 08:20:36;;;;;;;12.93;4.65;;;;;;;18.96;100.00;100741.06;3605476;39;20039;-62
2021/07/30 08:23:02;;;;;;;8.82;4.75;;;;;;;18.87;100.00;100741.22;3607104;39;20036;-62
2021/07/30 08:25:29;;;;;;;10.70;4.63;;;;;;;19.10;100.00;100740.19;3606304;39;20055;-62
2021/07/30 08:27:55;;;;;;;11.65;5.07;;;;;;;19.07;100.00;100737.84;3608140;39;20064;-62
2021/07/30 08:30:22;;;;;;;13.45;4.85;;;;;;;19.40;100.00;100734.56;3605771;39;20028;-62
2021/07/30 08:32:50;;;;;;;10.02;5.45;;;;;;;19.88;100.00;100737.44;3607344;39;20036;-62
2021/07/30 08:35:16;;;;;;;13.38;5.18;;;;;;;19.74;100.00;100735.63;3608349;39;20045;-61
2021/07/30 08:37:42;;;;;;;8.75;4.63;;;;;;;19.61;100.00;100734.53;3608059;39;20038;-63
2021/07/30 08:40:10;;;;;;;8.50;4.45;;;;;;;19.88;100.00;100734.72;3606281;39;20039;-62
2021/07/30 08:42:37;;;;;;;11.20;4.47;;;;;;;20.52;100.00;100729.97;3607367;39;20225;-62
2021/07/30 08:45:06;;;;;;;11.70;5.05;;;;;;;20.89;100.00;100733.28;3612548;22;20060;-62
2021/07/30 08:47:33;;;;;;;8.10;4.20;;;;;;;20.81;100.00;100733.47;3594516;39;20055;-62
2021/07/30 08:50:01;;;;;;;10.18;4.50;;;;;;;20.70;100.00;100731.31;3594230;39;20032;-62
2021/07/30 08:52:33;;;;;;;10.20;4.05;;;;;;;20.93;100.00;100734.53;3595800;39;20044;-62
2021/07/30 08:54:59;;;;;;;7.80;3.97;;;;;;;20.94;100.00;100728.00;3598319;39;20036;-62
2021/07/30 08:57:26;;;;;;;7.32;4.25;;;;;;;21.14;100.00;100721.72;3602216;39;20029;-62
2021/07/30 08:59:52;;;;;;;8.30;3.50;;;;;;;21.37;100.00;100715.84;3595277;39;20391;-63
2021/07/30 09:02:19;;;;;;;13.55;4.35;;;;;;;21.77;100.00;100712.22;3593289;39;20045;-62
2021/07/30 09:04:45;;;;;;;15.10;5.00;;;;;;;21.74;100.00;100713.50;3595621;39;20024;-63
2021/07/30 09:07:13;;;;;;;11.90;4.97;;;;;;;21.79;100.00;100716.44;3598030;39;20609;-62
2021/07/30 09:09:52;;;;;;;9.57;4.47;;;;;;;21.81;100.00;100702.53;3605819;39;20363;-62
2021/07/30 09:12:21;;;;;;;;;;;;;;;21.52;100.00;100700.06;3603926;39;20044;-63
2021/07/30 09:14:48;;;;;;;10.73;4.13;;;;;;;21.44;100.00;100708.47;3597070;39;19932;-60
2021/07/30 09:17:15;;;;;;;8.13;4.55;;;;;;;21.56;100.00;100695.00;3603472;39;20379;-60
2021/07/30 09:20:00;;;;;;;9.20;4.50;;;;;;;22.13;100.00;100700.75;3595668;39;20140;-59
2021/07/30 09:22:28;;;;;;;9.45;4.40;;;;;;;22.19;100.00;100699.88;3604550;39;20313;-61
2021/07/30 09:24:58;;;;;;;9.00;4.50;;;;;;;22.18;100.00;100695.44;3604834;39;20120;-62
2021/07/30 09:27:33;;;;;;;13.52;5.43;;;;;;;22.17;100.00;100693.78;3606755;39;20354;-60
2021/07/30 09:30:12;;;;;;;11.80;5.45;;;;;;;22.38;100.00;100695.41;3607302;39;20127;-61
2021/07/30 09:32:39;;;;;;;10.40;4.30;;;;;;;22.45;100.00;100686.28;3598311;39;20130;-61
2021/07/30 09:35:07;;;;;;;9.63;4.20;;;;;;;22.29;100.00;100684.84;3600108;39;20487;-61
2021/07/30 09:37:35;;;;;;;8.50;4.00;;;;;;;22.30;100.00;100681.91;3600127;39;20036;-61
2021/07/30 09:40:02;;;;;;;11.00;4.30;;;;;;;21.99;100.00;100675.28;3599353;39;20275;-61
2021/07/30 09:42:30;;;;;;;6.43;3.85;;;;;;;21.89;100.00;100674.88;3599117;39;20059;-61
2021/07/30 09:44:59;;;;;;;12.00;3.97;;;;;;;21.96;100.00;100680.38;3600972;39;20303;-61
2021/07/30 09:47:27;;;;;;;13.82;4.25;;;;;;;21.83;100.00;100673.00;3591133;39;20073;-61
2021/07/30 09:49:55;;;;;;;10.43;4.03;;;;;;;21.60;100.00;100663.41;3585768;40;20113;-61
2021/07/30 09:52:23;;;;;;;7.05;3.88;;;;;;;21.88;100.00;100660.38;3585566;39;20044;-61
2021/07/30 09:54:56;;;;;;;10.65;3.90;;;;;;;22.12;100.00;100671.66;3585193;40;20485;-62
2021/07/30 09:57:25;;;;;;;9.73;3.70;;;;;;;21.78;100.00;100659.13;3585555;40;20032;-61
2021/07/30 09:59:51;;;;;;;7.25;3.60;;;;;;;21.90;100.00;100651.94;3579105;40;20070;-61
2021/07/30 10:02:22;;;;;;;9.25;3.83;;;;;;;21.61;100.00;100659.59;3583647;40;20065;-61
2021/07/30 10:04:51;;;;;;;8.60;3.85;;;;;;;21.39;100.00;100649.91;3586435;40;20033;-62
2021/07/30 10:07:20;;;;;;;11.23;3.80;;;;;;;21.49;100.00;100651.16;3582256;40;20043;-61
2021/07/30 10:10:04;;;;;;;11.38;3.80;;;;;;;21.48;100.00;100649.47;3589652;39;20029;-60
2021/07/30 10:12:32;;;;;;;5.95;3.53;;;;;;;21.83;100.00;100653.84;3585658;39;20132;-62
2021/07/30 10:14:59;;;;;;;8.15;3.53;;;;;;;22.10;100.00;100642.78;3585129;39;20037;-62
2021/07/30 10:17:30;;;;;;;7.55;3.50;;;;;;;22.41;100.00;100639.28;3590462;40;20050;-62
2021/07/30 10:19:58;;;;;;;8.57;3.75;;;;;;;22.80;100.00;100631.00;3584578;39;20036;-61
2021/07/30 10:22:34;;;;;;;7.72;3.72;;;;;;;23.21;100.00;100632.38;3616759;22;20060;-62
2021/07/30 10:25:03;;;;;;;7.72;3.40;;;;;;;23.61;100.00;100627.31;3570159;40;20032;-60
2021/07/30 10:27:31;;;;;;;10.15;4.07;;;;;;;23.03;100.00;100617.50;3571863;40;20060;-60
2021/07/30 10:30:08;;;;;;;9.45;4.05;;;;;;;22.76;100.00;100614.13;3570790;40;20057;-62
2021/07/30 10:32:52;;;;;;;5.65;3.60;;;;;;;22.09;100.00;100611.78;3571891;40;20048;-63
2021/07/30 10:35:39;;;;;;;6.93;4.03;;;;;;;22.43;100.00;100611.66;3575857;40;20041;-62
2021/07/30 10:38:20;;;;;;;10.50;3.43;;;;;;;22.19;100.00;100600.38;3574014;40;20049;-62
2021/07/30 10:41:19;;;;;;;6.85;3.15;;;;;;;22.82;100.00;100593.19;3575183;40;20022;-62
2021/07/30 10:44:07;;;;;;;9.55;3.55;;;;;;;22.88;100.00;100592.31;3571841;40;20040;-61
2021/07/30 10:46:34;;;;;;;8.88;3.42;;;;;;;22.78;100.00;100592.81;3570164;40;21559;-63
2021/07/30 10:49:00;;;;;;;6.90;3.60;;;;;;;23.21;100.00;100581.03;3573240;40;20021;-62
2021/07/30 10:51:28;;;;;;;6.72;4.45;;;;;;;22.89;100.00;100588.50;3568859;40;20030;-62
2021/07/30 10:53:56;;;;;;;8.77;3.90;;;;;;;22.82;100.00;100577.59;3569639;40;20034;-62
2021/07/30 10:56:42;;;;;;;8.30;3.80;;;;;;;23.40;100.00;100573.66;3568601;40;20049;-62
2021/07/30 10:59:09;;;;;;;5.88;3.15;;;;;;;23.22;100.00;100570.91;3569536;40;20053;-62
2021/07/30 11:01:56;;;;;;;4.70;3.45;;;;;;;23.13;100.00;100567.63;3571950;40;20041;-63
2021/07/30 11:04:23;;;;;;;8.10;3.78;;;;;;;23.27;100.00;100568.31;3571317;40;20085;-62
2021/07/30 11:06:54;;;;;;;7.25;4.15;;;;;;;23.40;100.00;100573.66;3572186;40;20022;-62
2021/07/30 11:09:36;;;;;;;7.00;3.58;;;;;;;23.01;100.00;100564.75;3570165;40;20033;-63
2021/07/30 11:12:07;;;;;;;7.95;4.10;;;;;;;22.62;100.00;100566.78;3568949;40;20115;-62
2021/07/30 11:14:36;;;;;;;5.95;4.15;;;;;;;22.53;100.00;100563.47;3570014;40;20041;-62
2021/07/30 11:17:04;;;;;;;6.45;4.05;;;;;;;22.47;100.00;100564.34;3569335;40;20405;-62